Terminal Aerodrome Forecast
Issued by NWS

Home | Current Version | Previous Version | Graphics & Text | Print | Product List | Glossary On
Versions: 1 2 3 4 5 6 7 8 9 10 11 12 13 14 15 16 17
000
FTUS43 KUNR 241720
TAFGCC
TAF
KGCC 241720Z 2418/2518 18006KT P6SM SCT050
      TEMPO 2422/2502 -TSRA BKN050CB
     FM250200 VRB05KT P6SM VCSH OVC040
     FM250600 30006KT P6SM BKN060=

USA.gov is the U.S. government's official web portal to all federal, state and local government web resources and services.